Time;durP1;ratioP1;P1;durP2;ratioP2;P2;SDS_P1;SDS_P2;PMS_P1;PMS_P2;Temp;Humidity;BMP_temperature;BMP_pressure;BME280_temperature;BME280_humidity;BME280_pressure;Samples;Min_cycle;Max_cycle;Signal;HPM_P1;HPM_P2
2021/08/18 00:01:50;;;;;;;7.70;5.20;;;;;;;22.68;72.64;100295.66;1768188;80;21162;-55
2021/08/18 00:04:56;;;;;;;6.58;4.95;;;;;;;22.68;71.73;100298.44;1767952;80;21375;-55
2021/08/18 00:08:03;;;;;;;8.65;5.33;;;;;;;22.68;71.88;100297.05;1774555;78;21229;-54
2021/08/18 00:11:09;;;;;;;7.95;4.85;;;;;;;22.69;72.70;100304.34;1781392;79;21185;-54
2021/08/18 00:14:15;;;;;;;5.10;4.15;;;;;;;22.68;73.34;100320.23;1771590;79;21348;-54
2021/08/18 00:17:21;;;;;;;9.03;4.22;;;;;;;22.66;72.88;100328.58;1745810;82;21386;-54
2021/08/18 00:20:27;;;;;;;8.05;4.30;;;;;;;22.63;72.89;100327.70;1745866;82;21272;-54
2021/08/18 00:23:34;;;;;;;6.75;4.20;;;;;;;22.59;73.21;100338.52;1738154;81;21411;-54
2021/08/18 00:26:39;;;;;;;7.05;5.40;;;;;;;22.58;72.92;100339.59;1811765;79;21200;-54
2021/08/18 00:29:49;;;;;;;8.60;6.58;;;;;;;22.57;73.10;100341.25;1769061;80;21346;-55
2021/08/18 00:32:55;;;;;;;9.40;7.00;;;;;;;22.58;73.39;100341.56;1768852;79;21414;-54
2021/08/18 00:36:01;;;;;;;9.75;7.30;;;;;;;22.59;74.01;100334.33;1767240;80;21196;-55
2021/08/18 00:39:10;;;;;;;12.28;8.33;;;;;;;22.64;74.51;100338.60;1770859;79;21181;-54
2021/08/18 00:42:16;;;;;;;11.25;8.28;;;;;;;22.63;75.12;100327.70;1805254;79;21303;-55
2021/08/18 00:45:24;;;;;;;11.75;8.45;;;;;;;22.63;75.54;100323.51;1805825;79;21331;-55
2021/08/18 00:48:31;;;;;;;10.65;8.68;;;;;;;22.65;76.29;100315.70;1785351;79;21359;-55
2021/08/18 00:51:38;;;;;;;10.35;8.68;;;;;;;22.62;76.60;100305.05;1805872;79;21346;-56
2021/08/18 00:54:45;;;;;;;10.65;8.95;;;;;;;22.65;76.94;100305.94;1805789;78;21386;-55
2021/08/18 00:57:50;;;;;;;10.75;8.48;;;;;;;22.68;77.12;100305.42;1805842;79;21354;-56
2021/08/18 01:00:54;;;;;;;11.28;7.72;;;;;;;22.69;76.93;100311.31;1760291;81;21220;-56
2021/08/18 01:04:02;;;;;;;13.65;8.90;;;;;;;22.66;76.79;100304.86;1803398;78;21383;-55
2021/08/18 01:07:08;;;;;;;11.90;8.75;;;;;;;22.63;76.74;100298.39;1805514;79;21280;-54
2021/08/18 01:10:14;;;;;;;12.88;8.75;;;;;;;22.60;77.02;100289.11;1806033;78;21351;-54
2021/08/18 01:13:20;;;;;;;10.55;8.35;;;;;;;22.58;77.50;100278.78;1803555;78;21205;-55
2021/08/18 01:16:27;;;;;;;11.10;8.58;;;;;;;22.59;77.73;100276.27;1805306;78;21177;-55
2021/08/18 01:19:33;;;;;;;10.18;8.13;;;;;;;22.57;77.59;100275.13;1805854;78;21382;-55
2021/08/18 01:22:40;;;;;;;11.00;8.43;;;;;;;22.56;77.44;100281.83;1805768;79;21176;-55
2021/08/18 01:25:46;;;;;;;12.65;9.18;;;;;;;22.57;77.52;100278.46;1799834;79;21351;-55
2021/08/18 01:28:51;;;;;;;12.10;9.35;;;;;;;22.58;77.45;100270.41;1805864;78;21268;-55
2021/08/18 01:31:59;;;;;;;12.58;8.88;;;;;;;22.58;77.68;100283.78;1805896;79;21149;-56
2021/08/18 01:35:05;;;;;;;11.15;9.33;;;;;;;22.57;77.70;100284.05;1805756;78;21335;-56
2021/08/18 01:38:14;;;;;;;12.37;10.03;;;;;;;22.49;77.91;100281.11;1765255;78;21225;-55
2021/08/18 01:41:19;;;;;;;10.75;9.08;;;;;;;22.48;78.43;100270.21;1767820;80;21198;-55
2021/08/18 01:44:25;;;;;;;16.42;9.38;;;;;;;22.47;78.65;100265.17;1769809;79;21355;-56
2021/08/18 01:47:30;;;;;;;14.03;9.08;;;;;;;22.45;78.51;100263.21;1772729;79;21371;-56
2021/08/18 01:50:35;;;;;;;13.75;9.93;;;;;;;22.45;78.41;100269.33;1770560;80;21331;-56
2021/08/18 01:53:44;;;;;;;13.45;9.30;;;;;;;22.44;78.76;100288.00;1769987;79;21201;-55
2021/08/18 01:56:50;;;;;;;12.13;9.93;;;;;;;22.45;78.95;100309.78;1768525;80;21371;-55
2021/08/18 01:59:55;;;;;;;12.55;9.90;;;;;;;22.44;79.39;100313.69;1768006;80;21987;-55
2021/08/18 02:03:01;;;;;;;14.23;9.78;;;;;;;22.44;79.88;100333.22;1768718;79;21374;-55
2021/08/18 02:06:09;;;;;;;10.93;9.03;;;;;;;22.44;80.19;100324.27;1767889;80;21813;-55
2021/08/18 02:09:15;;;;;;;12.10;9.33;;;;;;;22.46;80.14;100322.08;1768118;80;21197;-55
2021/08/18 02:12:21;;;;;;;10.93;9.73;;;;;;;22.47;80.33;100301.44;1779084;79;21189;-57
2021/08/18 02:15:34;;;;;;;10.23;8.85;;;;;;;22.46;80.43;100310.06;1769467;80;21257;-56
2021/08/18 02:18:39;;;;;;;9.85;8.25;;;;;;;22.47;80.79;100303.41;1769078;80;21390;-56
2021/08/18 02:21:47;;;;;;;11.22;8.58;;;;;;;22.46;80.82;100301.16;1771986;80;21804;-56
2021/08/18 02:24:53;;;;;;;11.80;8.18;;;;;;;22.44;80.91;100297.77;1768037;80;21411;-55
2021/08/18 02:28:01;;;;;;;10.35;7.83;;;;;;;22.42;80.95;100299.96;1750681;80;21228;-55
2021/08/18 02:31:09;;;;;;;8.35;6.92;;;;;;;22.42;80.91;100301.93;1737776;82;21209;-56
2021/08/18 02:34:15;;;;;;;9.33;7.20;;;;;;;22.38;80.88;100301.59;1782575;78;21288;-56
2021/08/18 02:37:21;;;;;;;9.03;6.90;;;;;;;22.35;80.75;100299.84;1782827;79;21193;-56
2021/08/18 02:40:27;;;;;;;9.03;6.47;;;;;;;22.29;80.52;100296.69;1800727;79;21618;-57
2021/08/18 02:43:33;;;;;;;8.00;6.78;;;;;;;22.23;80.89;100300.78;1800750;78;21339;-54
2021/08/18 02:46:40;;;;;;;7.20;6.03;;;;;;;22.20;81.25;100318.02;1786741;79;21351;-55
2021/08/18 02:49:46;;;;;;;7.83;5.00;;;;;;;22.18;81.15;100316.59;1800837;78;21213;-55
2021/08/18 02:52:50;;;;;;;5.65;4.70;;;;;;;22.15;80.95;100322.11;1800754;79;21173;-56
2021/08/18 02:55:58;;;;;;;5.42;4.45;;;;;;;22.12;80.57;100319.84;1800583;79;21394;-57
2021/08/18 02:59:05;;;;;;;19.55;5.80;;;;;;;22.12;80.22;100336.56;1742774;81;21244;-56
2021/08/18 03:02:10;;;;;;;7.58;4.40;;;;;;;22.07;80.33;100332.29;1737151;82;21354;-56
2021/08/18 03:05:19;;;;;;;10.70;5.30;;;;;;;21.97;80.78;100337.70;1737293;80;21351;-56
2021/08/18 03:08:25;;;;;;;6.25;4.60;;;;;;;21.89;81.69;100351.19;1738175;81;21366;-57
2021/08/18 03:11:31;;;;;;;7.25;5.08;;;;;;;21.84;82.22;100360.31;1742221;81;21192;-57
2021/08/18 03:14:36;;;;;;;7.90;5.40;;;;;;;21.81;82.34;100359.42;1728806;81;21248;-57
2021/08/18 03:17:42;;;;;;;9.50;5.83;;;;;;;21.78;82.84;100363.24;1740798;80;21385;-55
2021/08/18 03:20:50;;;;;;;6.65;5.20;;;;;;;21.76;83.25;100352.34;1740390;82;21233;-55
2021/08/18 03:23:54;;;;;;;6.75;5.40;;;;;;;21.73;83.22;100349.17;1778366;79;21386;-56
2021/08/18 03:27:01;;;;;;;7.47;5.83;;;;;;;21.67;83.30;100341.27;1770239;80;21331;-55
2021/08/18 03:30:08;;;;;;;8.95;5.60;;;;;;;21.60;83.62;100331.35;1769369;79;21421;-56
2021/08/18 03:33:15;;;;;;;9.48;5.78;;;;;;;21.55;83.61;100329.31;1722689;81;21737;-56
2021/08/18 03:36:21;;;;;;;7.87;5.90;;;;;;;21.42;83.65;100329.59;1740156;81;21383;-56
2021/08/18 03:39:28;;;;;;;7.92;6.17;;;;;;;21.30;83.98;100329.34;1725554;81;21954;-55
2021/08/18 03:42:36;;;;;;;10.98;6.50;;;;;;;21.21;84.61;100335.86;1739251;81;21366;-55
2021/08/18 03:45:41;;;;;;;8.75;6.55;;;;;;;21.13;85.15;100333.45;1740066;81;21347;-55
2021/08/18 03:48:47;;;;;;;8.43;6.33;;;;;;;21.09;85.86;100339.20;1738598;81;21359;-55
2021/08/18 03:51:55;;;;;;;7.97;6.30;;;;;;;21.08;86.58;100334.73;1739718;81;21849;-56
2021/08/18 03:55:01;;;;;;;8.58;6.72;;;;;;;21.05;87.05;100336.62;1737673;81;21422;-57
2021/08/18 03:58:08;;;;;;;9.10;6.92;;;;;;;21.07;87.64;100330.27;1737978;81;21343;-55
2021/08/18 04:01:13;;;;;;;8.48;7.50;;;;;;;21.08;87.79;100333.88;1739249;81;21265;-55
2021/08/18 04:04:20;;;;;;;9.80;7.15;;;;;;;21.07;87.92;100328.87;1738480;81;21848;-53
2021/08/18 04:07:24;;;;;;;7.65;6.42;;;;;;;21.09;88.29;100328.63;1726090;82;21958;-54
2021/08/18 04:10:30;;;;;;;7.75;6.08;;;;;;;21.14;88.42;100332.36;1737594;82;21232;-55
2021/08/18 04:13:36;;;;;;;7.45;5.62;;;;;;;21.22;88.45;100343.11;1708475;81;21217;-55
2021/08/18 04:16:43;;;;;;;7.97;6.10;;;;;;;21.29;88.25;100335.48;1737523;82;21205;-56
2021/08/18 04:19:49;;;;;;;9.15;6.62;;;;;;;21.34;87.97;100324.45;1742524;81;21236;-55
2021/08/18 04:22:55;;;;;;;10.93;6.95;;;;;;;21.34;87.86;100323.06;1747058;81;21197;-54
2021/08/18 04:26:00;;;;;;;11.28;8.98;;;;;;;21.35;87.99;100340.05;1746884;81;21156;-54
2021/08/18 04:29:06;;;;;;;10.80;7.55;;;;;;;21.40;88.37;100349.91;1708183;82;21446;-54
2021/08/18 04:32:12;;;;;;;12.47;7.72;;;;;;;21.44;88.48;100354.42;1778077;80;21247;-56
2021/08/18 04:35:18;;;;;;;13.43;7.90;;;;;;;21.48;88.64;100349.53;1773343;79;21358;-56
2021/08/18 04:38:25;;;;;;;10.80;6.72;;;;;;;21.48;88.71;100336.98;1764276;80;21336;-55
2021/08/18 04:41:30;;;;;;;11.45;7.75;;;;;;;21.45;88.74;100338.87;1768900;80;21406;-55
2021/08/18 04:44:37;;;;;;;10.35;7.10;;;;;;;21.47;88.99;100342.81;1768004;80;21360;-54
2021/08/18 04:47:43;;;;;;;8.35;6.65;;;;;;;21.49;89.07;100353.99;1768084;80;21210;-55
2021/08/18 04:50:50;;;;;;;15.08;7.60;;;;;;;21.50;88.71;100355.67;1769705;79;21217;-56
2021/08/18 04:53:57;;;;;;;14.87;7.42;;;;;;;21.49;88.62;100360.95;1768342;80;21347;-56
2021/08/18 04:57:04;;;;;;;15.75;8.18;;;;;;;21.50;88.79;100367.38;1768559;80;21220;-54
2021/08/18 05:00:12;;;;;;;19.00;10.50;;;;;;;21.52;88.87;100359.60;1769928;80;21379;-57
2021/08/18 05:03:23;;;;;;;17.15;10.65;;;;;;;21.52;88.96;100341.49;1763801;81;21704;-56
2021/08/18 05:06:29;;;;;;;16.23;10.48;;;;;;;21.51;89.34;100333.70;1705794;82;21280;-55
2021/08/18 05:09:35;;;;;;;11.88;9.23;;;;;;;21.53;89.74;100328.70;1784005;79;21188;-54
2021/08/18 05:12:41;;;;;;;10.90;8.20;;;;;;;21.51;88.59;100313.34;1785737;79;21323;-56
2021/08/18 05:15:49;;;;;;;8.78;7.05;;;;;;;21.52;87.43;100309.45;1758035;81;21349;-55
2021/08/18 05:18:54;;;;;;;11.73;7.20;;;;;;;21.56;85.43;100298.98;1739808;81;21355;-56
2021/08/18 05:21:59;;;;;;;8.40;7.03;;;;;;;21.64;84.19;100315.30;1768340;80;21205;-57
2021/08/18 05:25:07;;;;;;;8.03;7.10;;;;;;;21.65;82.79;100295.23;1776752;79;21205;-53
2021/08/18 05:28:13;;;;;;;7.65;6.85;;;;;;;21.65;82.26;100311.41;1814124;78;21196;-57
2021/08/18 05:31:20;;;;;;;10.60;7.58;;;;;;;21.68;82.03;100312.30;1775836;79;21220;-56
2021/08/18 05:34:27;;;;;;;10.03;7.15;;;;;;;21.71;81.76;100324.34;1798317;78;21200;-55
2021/08/18 05:37:34;;;;;;;10.78;6.05;;;;;;;21.73;81.40;100325.48;1799326;79;21176;-54
2021/08/18 05:40:39;;;;;;;9.88;7.60;;;;;;;21.78;81.71;100331.19;1766704;80;21836;-56
2021/08/18 05:43:44;;;;;;;10.43;7.65;;;;;;;21.82;82.03;100337.94;1711193;82;21343;-55
2021/08/18 05:46:49;;;;;;;10.18;7.80;;;;;;;21.85;82.97;100334.11;1730658;82;21351;-54
2021/08/18 05:49:56;;;;;;;10.68;7.60;;;;;;;21.90;82.69;100322.20;1740583;81;21247;-55
2021/08/18 05:53:07;;;;;;;8.18;6.30;;;;;;;22.01;82.88;100326.33;1751885;81;21828;-56
2021/08/18 05:56:12;;;;;;;9.83;6.33;;;;;;;22.14;82.61;100318.19;1731311;82;21702;-55
2021/08/18 05:59:19;;;;;;;9.25;7.20;;;;;;;22.29;81.54;100319.00;1809054;79;21835;-54
2021/08/18 06:02:24;;;;;;;9.65;7.05;;;;;;;22.47;81.21;100318.18;1803198;79;21370;-53
2021/08/18 06:05:31;;;;;;;11.30;7.83;;;;;;;22.68;81.23;100311.86;1804081;79;21422;-54
2021/08/18 06:08:38;;;;;;;10.32;7.22;;;;;;;22.92;81.57;100315.27;1795674;79;21838;-54
2021/08/18 06:11:44;;;;;;;8.28;7.47;;;;;;;23.14;81.44;100317.53;1803363;79;21435;-55
2021/08/18 06:14:52;;;;;;;9.35;7.80;;;;;;;23.38;80.50;100303.62;1803424;79;21248;-55
2021/08/18 06:17:59;;;;;;;12.53;8.05;;;;;;;23.62;79.68;100306.43;1776830;80;21334;-55
2021/08/18 06:21:06;;;;;;;10.55;8.08;;;;;;;23.90;78.53;100301.11;1742832;79;21202;-53
2021/08/18 06:24:57;;;;;;;10.55;8.45;;;;;;;24.18;77.60;100298.90;1769896;79;21542;-54
2021/08/18 06:27:25;;;;;;;10.08;8.93;;;;;;;24.46;77.43;100297.19;1757225;80;21546;-55
2021/08/18 06:30:31;;;;;;;8.60;7.42;;;;;;;24.68;77.63;100297.94;1799453;79;21323;-55
2021/08/18 06:33:37;;;;;;;11.43;8.25;;;;;;;24.84;77.35;100296.08;1798269;78;21565;-54
2021/08/18 06:36:45;;;;;;;9.83;6.90;;;;;;;24.97;76.60;100298.40;1764748;81;21770;-54
2021/08/18 06:39:54;;;;;;;9.60;7.33;;;;;;;25.08;74.88;100292.55;1770277;79;21177;-54
2021/08/18 06:43:00;;;;;;;8.75;7.28;;;;;;;25.26;73.59;100291.81;1751274;79;21872;-54
2021/08/18 06:46:06;;;;;;;11.12;7.92;;;;;;;25.44;72.75;100290.78;1738909;80;21366;-53
2021/08/18 06:49:13;;;;;;;8.23;7.28;;;;;;;25.69;73.26;100299.84;1724646;82;21216;-55
2021/08/18 06:52:19;;;;;;;10.43;6.90;;;;;;;25.88;72.78;100290.61;1729704;82;21757;-55
2021/08/18 06:55:24;;;;;;;8.35;6.55;;;;;;;25.97;71.12;100282.50;1731802;83;21205;-54
2021/08/18 06:58:31;;;;;;;8.48;6.87;;;;;;;26.05;70.75;100277.77;1766093;80;21173;-54
2021/08/18 07:01:36;;;;;;;9.38;6.75;;;;;;;26.17;71.41;100280.58;1757862;81;21172;-54
2021/08/18 07:04:42;;;;;;;8.35;6.60;;;;;;;26.28;70.27;100273.00;1758912;81;21959;-53
2021/08/18 07:07:48;;;;;;;8.75;5.87;;;;;;;26.36;68.48;100276.64;1771153;79;21160;-54
2021/08/18 07:10:54;;;;;;;8.10;5.53;;;;;;;26.42;65.91;100267.09;1743362;81;21186;-54
2021/08/18 07:14:00;;;;;;;6.72;4.97;;;;;;;26.51;65.47;100266.81;1768405;80;21237;-54
2021/08/18 07:17:06;;;;;;;7.42;5.50;;;;;;;26.57;64.14;100267.63;1810776;79;21203;-54
2021/08/18 07:20:14;;;;;;;5.75;4.42;;;;;;;26.66;64.28;100264.55;1771453;79;21356;-53
2021/08/18 07:23:20;;;;;;;5.87;4.60;;;;;;;26.74;63.94;100263.97;1747303;80;21305;-54
2021/08/18 07:26:30;;;;;;;6.50;4.55;;;;;;;26.80;61.97;100253.03;1771581;79;21179;-53
2021/08/18 07:29:36;;;;;;;6.33;5.15;;;;;;;26.93;61.80;100256.06;1758364;80;21182;-54
2021/08/18 07:32:41;;;;;;;5.97;4.62;;;;;;;27.03;62.20;100249.02;1771693;79;21757;-55
2021/08/18 07:35:48;;;;;;;5.72;4.53;;;;;;;27.09;60.86;100238.02;1742926;81;21205;-53
2021/08/18 07:39:09;;;;;;;8.58;5.55;;;;;;;27.13;58.96;100230.68;1816436;79;21308;-54
2021/08/18 07:42:15;;;;;;;8.90;6.08;;;;;;;27.20;60.01;100226.16;1779714;80;21235;-53
2021/08/18 07:45:22;;;;;;;7.58;5.80;;;;;;;27.26;60.91;100220.25;1733121;82;21359;-53
2021/08/18 07:48:31;;;;;;;7.85;6.25;;;;;;;27.28;61.84;100221.37;1732737;82;21229;-53
2021/08/18 07:51:37;;;;;;;10.40;6.30;;;;;;;27.26;61.52;100220.25;1732793;81;21208;-53
2021/08/18 07:54:43;;;;;;;7.17;6.03;;;;;;;27.22;60.81;100221.95;1737164;81;21208;-54
2021/08/18 07:57:48;;;;;;;7.28;6.33;;;;;;;27.22;60.59;100216.87;1754767;80;21187;-54
2021/08/18 08:00:54;;;;;;;9.90;6.80;;;;;;;27.21;60.08;100218.84;1753418;81;21173;-54
2021/08/18 08:04:02;;;;;;;8.25;6.78;;;;;;;27.19;60.15;100221.12;1736139;82;21738;-53
2021/08/18 08:07:10;;;;;;;9.08;6.45;;;;;;;27.20;60.53;100219.13;1757135;81;21185;-53
2021/08/18 08:10:16;;;;;;;9.20;6.85;;;;;;;27.25;60.84;100212.93;1740754;81;21208;-54
2021/08/18 08:13:22;;;;;;;7.62;5.92;;;;;;;27.34;60.37;100215.98;1758138;80;21377;-53
2021/08/18 08:16:31;;;;;;;8.68;6.37;;;;;;;27.45;60.28;100217.05;1778784;79;21292;-54
2021/08/18 08:19:37;;;;;;;9.48;7.03;;;;;;;27.52;60.62;100206.34;1740183;82;21209;-55
2021/08/18 08:22:44;;;;;;;10.72;7.10;;;;;;;27.59;61.39;100198.39;1802856;78;21322;-53
2021/08/18 08:25:52;;;;;;;8.63;7.03;;;;;;;27.64;61.45;100195.55;1771375;81;21714;-53
2021/08/18 08:28:57;;;;;;;9.78;7.85;;;;;;;27.67;61.19;100193.56;1728041;81;21196;-53
2021/08/18 08:32:03;;;;;;;8.90;6.45;;;;;;;27.71;60.52;100191.86;1766389;80;21220;-53
2021/08/18 08:35:08;;;;;;;10.68;7.00;;;;;;;27.80;60.41;100185.87;1771596;79;21737;-53
2021/08/18 08:38:16;;;;;;;9.70;7.08;;;;;;;27.92;59.61;100185.53;1750768;81;21823;-53
2021/08/18 08:41:23;;;;;;;10.15;6.95;;;;;;;28.07;58.88;100189.61;1747380;81;21183;-54
2021/08/18 08:44:32;;;;;;;10.40;7.53;;;;;;;28.22;58.77;100189.48;1760775;81;21236;-54
2021/08/18 08:47:40;;;;;;;11.28;7.58;;;;;;;28.35;58.92;100187.95;1774275;81;21329;-53
2021/08/18 08:50:45;;;;;;;9.85;6.72;;;;;;;28.47;58.36;100191.19;1737053;81;21375;-55
2021/08/18 08:53:53;;;;;;;10.00;7.28;;;;;;;28.58;57.36;100189.41;1738636;80;21228;-53
2021/08/18 08:57:00;;;;;;;8.73;7.15;;;;;;;28.67;56.83;100186.20;1749741;81;21190;-54
2021/08/18 09:00:05;;;;;;;10.43;7.00;;;;;;;28.77;56.16;100185.23;1735984;81;22233;-54
2021/08/18 09:03:23;;;;;;;8.98;7.20;;;;;;;28.86;56.31;100183.46;1760952;81;21575;-54
2021/08/18 09:06:30;;;;;;;9.85;7.50;;;;;;;28.89;55.69;100177.22;1745821;81;21714;-54
2021/08/18 09:09:35;;;;;;;12.60;7.85;;;;;;;28.89;55.70;100180.85;1770214;79;21267;-53
2021/08/18 09:12:45;;;;;;;8.30;7.40;;;;;;;28.99;56.27;100177.92;1741598;80;21180;-54
2021/08/18 09:15:57;;;;;;;11.20;7.17;;;;;;;29.12;55.94;100174.40;1726543;81;21672;-55
2021/08/18 09:19:05;;;;;;;12.63;7.55;;;;;;;29.22;55.89;100169.19;1742048;81;21752;-54
2021/08/18 09:22:15;;;;;;;11.40;7.83;;;;;;;29.30;56.39;100167.10;1756868;81;21214;-54
2021/08/18 09:25:31;;;;;;;9.88;7.75;;;;;;;29.36;54.47;100165.87;1783916;79;21718;-54
2021/08/18 09:28:38;;;;;;;11.45;8.08;;;;;;;29.40;53.76;100154.83;1797848;78;21773;-53
2021/08/18 09:31:44;;;;;;;16.90;10.95;;;;;;;29.43;54.74;100142.94;1797824;80;21181;-54
2021/08/18 09:35:09;;;;;;;15.90;9.40;;;;;;;29.47;53.30;100147.66;1797902;80;21717;-54
2021/08/18 09:38:20;;;;;;;12.18;8.88;;;;;;;29.51;52.67;100147.30;1798075;79;21177;-54
2021/08/18 09:41:28;;;;;;;15.65;9.80;;;;;;;29.55;52.63;100144.14;1798142;80;21184;-54
2021/08/18 09:44:34;;;;;;;12.65;9.53;;;;;;;29.59;52.17;100133.91;1798128;78;21746;-54
2021/08/18 09:47:40;;;;;;;13.48;9.75;;;;;;;29.64;53.15;100131.03;1798476;80;21264;-54
2021/08/18 09:50:57;;;;;;;14.70;8.80;;;;;;;29.72;52.54;100124.70;1798104;80;21761;-55
2021/08/18 09:54:06;;;;;;;14.00;9.35;;;;;;;29.72;52.54;100124.70;1798497;80;21808;-54
2021/08/18 09:57:15;;;;;;;14.35;8.83;;;;;;;29.76;50.93;100123.52;1799068;79;21216;-55
2021/08/18 10:00:23;;;;;;;14.13;8.98;;;;;;;29.84;50.95;100123.66;1765323;81;21343;-57
2021/08/18 10:03:34;;;;;;;13.05;9.28;;;;;;;29.87;49.79;100123.04;1728492;81;21229;-56
2021/08/18 10:06:41;;;;;;;12.63;8.80;;;;;;;29.92;49.33;100117.28;1790341;79;21830;-58
2021/08/18 10:09:50;;;;;;;12.47;9.13;;;;;;;29.99;49.09;100114.05;1800058;78;21331;-58
2021/08/18 10:12:56;;;;;;;16.23;9.93;;;;;;;30.03;49.93;100112.30;1798785;79;21747;-57
2021/08/18 10:16:03;;;;;;;11.53;8.98;;;;;;;30.12;50.76;100111.84;1745458;81;21198;-59
2021/08/18 10:19:13;;;;;;;15.20;9.80;;;;;;;30.21;50.87;100106.61;1733687;82;21637;-57
2021/08/18 10:22:23;;;;;;;13.68;9.38;;;;;;;30.28;50.15;100107.05;1722193;82;21204;-58
2021/08/18 10:25:42;;;;;;;13.53;9.83;;;;;;;30.33;49.96;100097.07;1776818;78;21203;-58
2021/08/18 10:29:12;;;;;;;17.60;9.15;;;;;;;30.40;49.39;100102.28;1774761;80;21220;-59
2021/08/18 10:32:23;;;;;;;17.77;10.25;;;;;;;30.43;48.28;100092.61;1776286;80;21189;-58
2021/08/18 10:35:48;;;;;;;14.28;9.50;;;;;;;30.43;48.28;100092.61;1776492;80;21319;-59
2021/08/18 10:38:54;;;;;;;16.82;10.90;;;;;;;30.54;48.18;100079.94;1770276;81;21223;-58
2021/08/18 10:42:17;;;;;;;14.90;10.20;;;;;;;30.54;48.18;100079.94;1777305;80;21184;-59
2021/08/18 10:45:37;;;;;;;16.02;10.55;;;;;;;30.64;47.79;100081.16;1772253;80;21561;-60
2021/08/18 10:49:08;;;;;;;13.53;10.08;;;;;;;30.74;47.39;100076.42;1776405;79;21370;-59
2021/08/18 10:52:14;;;;;;;16.82;10.28;;;;;;;30.79;48.27;100072.11;1762783;80;21225;-60
2021/08/18 10:55:35;;;;;;;17.02;10.48;;;;;;;30.85;47.58;100063.77;1777419;80;21375;-58
2021/08/18 10:58:41;;;;;;;13.93;10.05;;;;;;;30.95;47.54;100057.33;1772727;79;21800;-59
2021/08/18 11:01:50;;;;;;;16.85;11.05;;;;;;;31.08;47.74;100052.19;1770770;81;21197;-59
2021/08/18 11:04:56;;;;;;;18.77;11.10;;;;;;;31.14;47.11;100057.16;1772979;80;21177;-59
2021/08/18 11:08:32;;;;;;;16.73;11.10;;;;;;;31.09;46.37;100052.46;1730474;82;21245;-59
2021/08/18 11:11:44;;;;;;;14.85;11.30;;;;;;;31.02;46.03;100047.81;1734053;82;21333;-61
2021/08/18 11:14:52;;;;;;;16.67;10.95;;;;;;;30.93;45.60;100037.00;1758006;81;21334;-58
2021/08/18 11:18:01;;;;;;;17.82;11.08;;;;;;;31.01;46.06;100032.58;1775215;80;21185;-59
2021/08/18 11:21:06;;;;;;;14.50;10.65;;;;;;;31.22;46.23;100038.02;1773597;80;21165;-59
2021/08/18 11:24:20;;;;;;;15.80;11.20;;;;;;;31.35;45.62;100030.09;1768692;81;21578;-59
2021/08/18 11:27:25;;;;;;;19.32;12.07;;;;;;;31.46;45.27;100018.77;1778079;78;21208;-59
2021/08/18 11:30:39;;;;;;;17.05;11.50;;;;;;;31.58;44.00;100013.34;1768549;79;21837;-59
2021/08/18 11:33:52;;;;;;;16.07;11.10;;;;;;;31.69;43.64;100013.33;1753390;79;22264;-60
2021/08/18 11:36:58;;;;;;;15.95;11.20;;;;;;;31.82;43.97;100014.67;1756638;81;21362;-59
2021/08/18 11:40:06;;;;;;;18.90;11.97;;;;;;;31.97;44.39;100008.61;1761963;81;21955;-59
2021/08/18 11:43:12;;;;;;;17.57;11.60;;;;;;;32.00;43.79;100000.87;1762881;81;21177;-60
2021/08/18 11:46:21;;;;;;;22.75;12.25;;;;;;;32.03;43.94;99994.55;1759610;79;21251;-58
2021/08/18 11:49:28;;;;;;;18.37;12.35;;;;;;;32.17;44.77;99996.44;1767841;81;21225;-60
2021/08/18 11:52:34;;;;;;;20.35;12.40;;;;;;;32.27;43.97;99991.30;1724619;81;21614;-60
2021/08/18 11:55:43;;;;;;;16.90;11.60;;;;;;;32.34;43.34;99985.16;1762639;80;21265;-59
2021/08/18 11:58:50;;;;;;;16.10;11.73;;;;;;;32.41;42.92;99982.72;1734732;82;21355;-60
2021/08/18 12:01:57;;;;;;;16.85;12.50;;;;;;;32.48;42.82;99976.81;1708202;84;22175;-60
2021/08/18 12:05:08;;;;;;;19.20;13.55;;;;;;;32.59;43.25;99975.91;1767040;79;21374;-61
2021/08/18 12:08:18;;;;;;;20.27;13.13;;;;;;;32.62;42.88;99982.36;1780204;79;21784;-62
2021/08/18 12:11:25;;;;;;;18.17;12.60;;;;;;;32.60;42.14;99964.23;1770093;79;21177;-61
2021/08/18 12:14:30;;;;;;;18.67;12.47;;;;;;;32.64;42.44;99969.52;1775088;80;21197;-58
2021/08/18 12:17:40;;;;;;;19.05;13.83;;;;;;;32.66;42.11;99962.94;1765818;80;21363;-59
2021/08/18 12:20:46;;;;;;;22.93;14.05;;;;;;;32.72;42.43;99970.11;1766306;80;21221;-58
2021/08/18 12:23:52;;;;;;;24.92;14.00;;;;;;;32.76;42.35;99965.42;1763300;79;21356;-58
2021/08/18 12:27:16;;;;;;;18.85;14.13;;;;;;;32.74;41.58;99953.60;1759602;80;21829;-58
2021/08/18 12:30:22;;;;;;;19.52;14.33;;;;;;;32.69;41.57;99950.92;1769731;81;21765;-58
2021/08/18 12:33:28;;;;;;;27.70;13.83;;;;;;;32.68;42.34;99948.42;1767454;79;21222;-59
2021/08/18 12:36:35;;;;;;;18.90;13.25;;;;;;;32.66;42.30;99943.09;1804303;79;21324;-59
2021/08/18 12:39:47;;;;;;;18.50;13.88;;;;;;;32.67;42.74;99934.82;1768304;80;21770;-59
2021/08/18 12:43:04;;;;;;;19.23;13.85;;;;;;;32.67;42.41;99940.48;1766472;81;21210;-59
2021/08/18 12:46:10;;;;;;;20.95;13.90;;;;;;;32.58;41.39;99938.23;1736726;82;21760;-60
2021/08/18 12:49:37;;;;;;;23.85;14.03;;;;;;;32.48;42.73;99924.95;1803159;78;21389;-61
2021/08/18 12:52:43;;;;;;;21.00;14.85;;;;;;;32.39;42.86;99926.94;1768153;80;21316;-61
2021/08/18 12:55:50;;;;;;;18.67;13.98;;;;;;;32.37;42.57;99925.86;1743391;82;21841;-61
2021/08/18 12:58:57;;;;;;;21.90;14.50;;;;;;;32.31;42.41;99936.23;1736980;81;21586;-61
2021/08/18 13:02:03;;;;;;;21.73;15.23;;;;;;;32.28;42.85;99927.81;1737528;82;22185;-60
2021/08/18 13:05:12;;;;;;;20.72;14.75;;;;;;;32.31;42.26;99931.41;1757178;81;21205;-60
2021/08/18 13:08:19;;;;;;;21.42;13.93;;;;;;;32.34;41.66;99928.48;1767579;80;21224;-61
2021/08/18 13:11:27;;;;;;;18.42;13.60;;;;;;;32.35;41.26;99929.56;1774834;80;21732;-61
2021/08/18 13:14:34;;;;;;;22.45;15.08;;;;;;;32.34;41.71;99917.98;1767442;80;21205;-61
2021/08/18 13:17:40;;;;;;;20.05;14.65;;;;;;;32.33;42.01;99916.91;1755068;81;21200;-60
2021/08/18 13:20:47;;;;;;;19.62;14.70;;;;;;;32.29;42.42;99908.22;1766876;81;21195;-60
2021/08/18 13:23:53;;;;;;;22.60;15.00;;;;;;;32.24;42.24;99904.13;1767388;80;21172;-60
2021/08/18 13:27:02;;;;;;;22.32;15.63;;;;;;;32.25;42.24;99907.80;1800559;79;21185;-60
2021/08/18 13:30:07;;;;;;;24.35;15.50;;;;;;;32.17;42.09;99921.36;1804687;77;21244;-59
2021/08/18 13:33:13;;;;;;;20.40;14.90;;;;;;;31.99;42.36;99919.06;1771629;80;21374;-61
2021/08/18 13:36:18;;;;;;;20.97;14.30;;;;;;;31.75;42.65;99916.61;1804862;79;21341;-62
2021/08/18 13:39:23;;;;;;;22.27;15.30;;;;;;;31.51;43.07;99920.39;1771548;81;21264;-61
2021/08/18 13:42:28;;;;;;;24.47;16.48;;;;;;;31.29;43.78;99917.58;1767028;80;21798;-60
2021/08/18 13:45:34;;;;;;;20.35;15.18;;;;;;;31.10;44.18;99920.34;1764542;81;21497;-60
2021/08/18 13:48:39;;;;;;;21.20;9.93;;;;;;;30.94;43.88;99937.47;1804628;79;21239;-59
2021/08/18 13:51:46;;;;;;;12.40;8.05;;;;;;;30.73;43.42;99963.95;1765920;81;21193;-58
2021/08/18 13:54:53;;;;;;;12.20;7.97;;;;;;;30.16;44.30;99973.93;1795717;79;21451;-60
2021/08/18 13:58:00;;;;;;;13.48;8.08;;;;;;;29.57;45.62;99975.39;1768272;81;21169;-58
2021/08/18 14:01:07;;;;;;;11.57;7.35;;;;;;;28.86;47.49;99991.80;1802187;79;21382;-58
2021/08/18 14:04:12;;;;;;;10.30;8.20;;;;;;;28.18;49.02;99996.11;1799777;79;21204;-59
2021/08/18 14:07:18;;;;;;;11.50;8.13;;;;;;;27.71;50.19;100007.58;1800869;79;21360;-58
2021/08/18 14:10:27;;;;;;;11.70;8.45;;;;;;;27.36;50.97;99978.40;1797900;79;21974;-59
2021/08/18 14:13:34;;;;;;;13.05;8.48;;;;;;;27.08;51.91;99978.34;1743586;80;21283;-58
2021/08/18 14:16:40;;;;;;;12.53;8.48;;;;;;;26.81;52.82;99975.17;1804920;79;21172;-60
2021/08/18 14:19:48;;;;;;;10.53;8.03;;;;;;;26.64;53.80;99981.72;1785903;79;21581;-57
2021/08/18 14:22:58;;;;;;;18.65;8.63;;;;;;;26.50;54.14;99977.30;1754445;80;21244;-56
2021/08/18 14:26:04;;;;;;;10.65;8.05;;;;;;;26.33;54.69;99967.02;1751321;80;21382;-55